Pagrindinis puslapis
METAR-TAF:

METAR-TAF

Oro uostai :

Nuakšotas, Mauritanija

platuma: 18-18-36N, ilguma: 015-58-11W, Aukštis: 3 m

Dabartinis oras

Ataskaita buvo paskelbta 43 minutes, ne 09:30 UTC
Vėjas 14 kt iš Šiaurės Rytų
Temperatūra 20°C
Drėgmė 35%
Slėgis 1017 hPa
Matomumas 10 km arba daugiau
nėra debesų žemiau 1500 m ir nėra kamuolinių lietaus debesų

METAR: GQNO 090930Z 04014KT CAVOK 20/04 Q1017 NOSIG

Laikas: 10:13 (10:13 UTC)

Prognozė

Ataskaita buvo paskelbta 5 valandos ir 13 minutes, ne 05:00 UTC
Prognozė galioja nuo 09 metu 06 UTC su 10 metu 12 UTC
Vėjas 12 kt iš Šiaurės/Šiaurės Rytų
Matomumas: 7000 m
Laikinai
nuo 09 metu 10 UTC su 09 metu 18 UTC
Vėjas 15 kt iš Rytų
Tikimybė 40% :
Laikinai
nuo 09 metu 11 UTC su 09 metu 17 UTC
Matomumas: 4000 m
Smėlio pustymas

TAF: GQNO 090500Z 0906/1012 02012KT 7000 NSC TEMPO 0910/0918 08015KT PROB40 TEMPO 0911/0917 4000 BLSA

Orai ataskaitas ir orų prognozės (METAR, TAF).

turimą stotys yra geltonos ir raudonos taškus žemėlapyje.

Perkelti pele per norėdami pamatyti stoties vardą.

Tada spustelėkite, norėdami matyti oro stebėjimo ir prognozės.

Norėdami pakeisti žemėlapį: spustelėkite ant žalios mygtukų su juodo kryžiaus žemyn,; žalią mygtuką su brūkšneliu, jei norite nutolinti; arba žalių rodyklių gretimoms žemėlapius.


METAR-TAF: